Menu Close Menu
Station Historical Data
Daily Summary for June 12, 2017 Units:  English    Metric   Both
« Previous Day
Next Day »
Daily Weekly Monthly Yearly Custom
  High: Low: Average:
Temperature: 88.7 °F 72.1 °F 77.2 °F
Dew Point: 72.3 °F 67.3 °F 69.5 °F
Humidity: 88% 52% 78%
Wind Speed: 1.0mph 0.0mph 0mph
Wind Gust: 5.0mph - -
Wind- - SW
Pressure: 30.21 in 30.07 in -
Precipitation: 0.00 in    
Historical Graphs
 
 
Tabular Data for June 12, 2017
Time Temperature Dew Point Pressure Wind Wind Speed Wind Gust Humidity Rainfall Rate (Hourly) solar Conditions
00:00 76.4 °F 68.7 °F 30.17 in Calm   1.0 mph 77% 0.00 in WeatherDisplay:10.37 W/m2 CLR
00:10 76.1 °F 68.4 °F 30.16 in Calm     77% 0.00 in WeatherDisplay:10.37 W/m2 CLR
00:20 75.9 °F 68.5 °F 30.16 in Calm     78% 0.00 in WeatherDisplay:10.37 W/m2 CLR
00:30 75.9 °F 68.5 °F 30.17 in Calm   2.0 mph 78% 0.00 in WeatherDisplay:10.37 W/m2 CLR
00:40 75.7 °F 68.7 °F 30.17 in Calm   1.0 mph 79% 0.00 in WeatherDisplay:10.37 W/m2 CLR
00:50 75.5 °F 68.9 °F 30.17 in Calm   1.0 mph 80% 0.00 in WeatherDisplay:10.37 W/m2 CLR
01:00 75.3 °F 68.7 °F 30.17 in Calm   1.0 mph 80% 0.00 in WeatherDisplay:10.37 W/m2 CLR
01:10 75.1 °F 68.9 °F 30.16 in Calm   1.0 mph 81% 0.00 in WeatherDisplay:10.37 W/m2 CLR
01:20 74.8 °F 68.9 °F 30.17 in Calm     82% 0.00 in WeatherDisplay:10.37 W/m2 CLR
01:30 74.6 °F 68.7 °F 30.16 in Calm   1.0 mph 82% 0.00 in WeatherDisplay:10.37 W/m2 CLR
01:40 74.4 °F 68.5 °F 30.16 in Calm   1.0 mph 82% 0.00 in WeatherDisplay:10.37 W/m2 CLR
01:50 74.2 °F 68.7 °F 30.16 in Calm     83% 0.00 in WeatherDisplay:10.37 W/m2 CLR
02:00 74.0 °F 68.5 °F 30.16 in Calm     83% 0.00 in WeatherDisplay:10.37 W/m2 CLR
02:10 73.9 °F 68.8 °F 30.16 in Calm   2.0 mph 84% 0.00 in WeatherDisplay:10.37 W/m2 CLR
02:20 74.0 °F 68.9 °F 30.15 in Calm     84% 0.00 in WeatherDisplay:10.37 W/m2 CLR
02:30 73.9 °F 68.7 °F 30.15 in Calm     84% 0.00 in WeatherDisplay:10.37 W/m2 CLR
02:40 73.7 °F 68.6 °F 30.15 in Calm     84% 0.00 in WeatherDisplay:10.37 W/m2 CLR
02:50 73.4 °F 68.3 °F 30.15 in Calm     84% 0.00 in WeatherDisplay:10.37 W/m2 CLR
03:00 73.2 °F 68.4 °F 30.15 in Calm     85% 0.00 in WeatherDisplay:10.37 W/m2 CLR
03:10 73.0 °F 68.5 °F 30.15 in Calm     86% 0.00 in WeatherDisplay:10.37 W/m2 CLR
03:20 73.0 °F 68.5 °F 30.15 in Calm     86% 0.00 in WeatherDisplay:10.37 W/m2 CLR
03:30 73.0 °F 68.6 °F 30.15 in Calm     86% 0.00 in WeatherDisplay:10.37 W/m2 CLR
03:40 73.0 °F 68.5 °F 30.14 in Calm     86% 0.00 in WeatherDisplay:10.37 W/m2 CLR
03:50 72.9 °F 68.4 °F 30.14 in Calm     86% 0.00 in WeatherDisplay:10.37 W/m2 CLR
04:00 72.7 °F 67.9 °F 30.14 in Calm     85% 0.00 in WeatherDisplay:10.37 W/m2 CLR
04:10 72.7 °F 67.9 °F 30.14 in Calm     85% 0.00 in WeatherDisplay:10.37 W/m2 CLR
04:20 72.7 °F 67.9 °F 30.14 in Calm     85% 0.00 in WeatherDisplay:10.37 W/m2 CLR
04:30 72.7 °F 67.9 °F 30.14 in Calm     85% 0.00 in WeatherDisplay:10.37 W/m2 CLR
04:40 72.7 °F 67.9 °F 30.14 in Calm     85% 0.00 in WeatherDisplay:10.37 W/m2 CLR
04:50 72.7 °F 67.9 °F 30.14 in Calm     85% 0.00 in WeatherDisplay:10.37 W/m2 CLR
05:00 72.7 °F 67.9 °F 30.14 in Calm     85% 0.00 in WeatherDisplay:10.37 W/m2 CLR
05:10 72.7 °F 67.9 °F 30.15 in Calm     85% 0.00 in WeatherDisplay:10.37 W/m2 CLR
05:20 72.7 °F 67.9 °F 30.15 in Calm     85% 0.00 in WeatherDisplay:10.37 W/m2 CLR
05:30 72.7 °F 67.9 °F 30.15 in Calm     85% 0.00 in WeatherDisplay:10.37 W/m2 CLR
05:40 72.7 °F 67.9 °F 30.15 in Calm     85% 0.00 in WeatherDisplay:10.37 W/m2 CLR
05:50 72.7 °F 67.9 °F 30.15 in Calm     85% 0.00 in WeatherDisplay:10.37 W/m2 CLR
06:00 72.7 °F 67.9 °F 30.16 in Calm     85% 0.00 in WeatherDisplay:10.37 W/m2 CLR
06:10 72.7 °F 67.9 °F 30.16 in Calm     85% 0.00 in WeatherDisplay:10.37 W/m2 CLR
06:20 72.7 °F 67.9 °F 30.16 in Calm     85% 0.00 in WeatherDisplay:10.37 W/m2 CLR
06:30 72.7 °F 67.9 °F 30.16 in Calm     85% 0.00 in WeatherDisplay:10.37 W/m2 CLR
06:40 72.7 °F 67.9 °F 30.17 in Calm     85% 0.00 in WeatherDisplay:10.37 W/m2 CLR
06:50 72.7 °F 67.9 °F 30.17 in Calm     85% 0.00 in WeatherDisplay:10.37 W/m2 CLR
07:00 72.7 °F 67.9 °F 30.17 in Calm     85% 0.00 in WeatherDisplay:10.37 W/m2 CLR
07:10 72.7 °F 67.9 °F 30.17 in Calm     85% 0.00 in WeatherDisplay:10.37 W/m2 CLR
07:20 72.7 °F 67.9 °F 30.18 in Calm     85% 0.00 in WeatherDisplay:10.37 W/m2 CLR
07:30 72.7 °F 67.9 °F 30.18 in Calm     85% 0.00 in WeatherDisplay:10.37 W/m2 CLR
07:40 72.7 °F 67.9 °F 30.18 in Calm     85% 0.00 in WeatherDisplay:10.37 W/m2 CLR
07:50 72.7 °F 67.9 °F 30.19 in Calm     85% 0.00 in WeatherDisplay:10.37 W/m2 CLR
08:00 72.7 °F 67.9 °F 30.19 in Calm     85% 0.00 in WeatherDisplay:10.37 W/m2 CLR
08:10 72.7 °F 67.9 °F 30.19 in Calm     85% 0.00 in WeatherDisplay:10.37 W/m2 CLR
08:20 72.7 °F 67.9 °F 30.19 in Calm     85% 0.00 in WeatherDisplay:10.37 W/m2 CLR
08:30 72.7 °F 67.9 °F 30.20 in Calm     85% 0.00 in WeatherDisplay:10.37 W/m2 CLR
08:40 72.7 °F 67.9 °F 30.20 in Calm     85% 0.00 in WeatherDisplay:10.37 W/m2 CLR
08:50 72.7 °F 67.9 °F 30.20 in Calm     85% 0.00 in WeatherDisplay:10.37 W/m2 CLR
09:00 72.7 °F 67.9 °F 30.20 in Calm     85% 0.00 in WeatherDisplay:10.37 W/m2 CLR
09:10 73.9 °F 70.1 °F 30.21 in Calm     88% 0.00 in WeatherDisplay:10.37 W/m2 CLR
09:20 74.2 °F 69.7 °F 30.21 in Calm     86% 0.00 in WeatherDisplay:10.37 W/m2 CLR
09:30 74.4 °F 69.9 °F 30.21 in Calm     86% 0.00 in WeatherDisplay:10.37 W/m2 CLR
09:40 74.7 °F 69.9 °F 30.21 in Calm     85% 0.00 in WeatherDisplay:10.37 W/m2 CLR
09:50 75.0 °F 70.2 °F 30.20 in Calm     85% 0.00 in WeatherDisplay:10.37 W/m2 CLR
10:00 75.9 °F 70.3 °F 30.20 in Calm     83% 0.00 in WeatherDisplay:10.37 W/m2 CLR
10:10 77.0 °F 71.1 °F 30.19 in Calm   1.0 mph 82% 0.00 in WeatherDisplay:10.37 W/m2 CLR
10:20 78.6 °F 71.6 °F 30.19 in Calm   1.0 mph 79% 0.00 in WeatherDisplay:10.37 W/m2 CLR
10:30 79.5 °F 71.3 °F 30.18 in Calm   1.0 mph 76% 0.00 in WeatherDisplay:10.37 W/m2 CLR
10:40 80.0 °F 71.4 °F 30.18 in NW 1.0 mph 1.0 mph 75% 0.00 in WeatherDisplay:10.37 W/m2 CLR
10:50 79.8 °F 71.2 °F 30.18 in Calm   1.0 mph 75% 0.00 in WeatherDisplay:10.37 W/m2 CLR
11:00 79.6 °F 71.0 °F 30.18 in Calm   1.0 mph 75% 0.00 in WeatherDisplay:10.37 W/m2 CLR
11:10 80.5 °F 70.7 °F 30.18 in Calm   1.0 mph 72% 0.00 in WeatherDisplay:10.37 W/m2 CLR
11:20 81.0 °F 69.5 °F 30.18 in Calm   1.0 mph 68% 0.00 in WeatherDisplay:10.37 W/m2 CLR
11:30 80.9 °F 70.2 °F 30.18 in Calm   1.0 mph 70% 0.00 in WeatherDisplay:10.37 W/m2 CLR
11:40 80.2 °F 70.3 °F 30.17 in Calm   1.0 mph 72% 0.00 in WeatherDisplay:10.37 W/m2 CLR
11:50 80.7 °F 72.0 °F 30.17 in Calm   1.0 mph 75% 0.00 in WeatherDisplay:10.37 W/m2 CLR
12:00 81.9 °F 72.0 °F 30.17 in Calm   1.0 mph 72% 0.00 in WeatherDisplay:10.37 W/m2 CLR
12:10 82.9 °F 71.7 °F 30.17 in Calm   2.0 mph 69% 0.00 in WeatherDisplay:10.37 W/m2 CLR
12:20 83.4 °F 71.3 °F 30.17 in Calm   1.0 mph 67% 0.00 in WeatherDisplay:10.37 W/m2 CLR
12:30 83.7 °F 69.8 °F 30.16 in Calm   1.0 mph 63% 0.00 in WeatherDisplay:10.37 W/m2 CLR
12:50 84.8 °F 70.3 °F 30.16 in Calm   1.0 mph 62% 0.00 in WeatherDisplay:10.37 W/m2 CLR
13:00 85.4 °F 69.0 °F 30.15 in NNE 1.0 mph 2.0 mph 58% 0.00 in WeatherDisplay:10.37 W/m2 CLR
13:10 86.8 °F 69.7 °F 30.15 in Calm   1.0 mph 57% 0.00 in WeatherDisplay:10.37 W/m2 CLR
13:20 87.4 °F 71.8 °F 30.15 in Calm   2.0 mph 60% 0.00 in WeatherDisplay:10.37 W/m2 CLR
13:30 87.8 °F 69.1 °F 30.14 in WNW 1.0 mph 2.0 mph 54% 0.00 in WeatherDisplay:10.37 W/m2 CLR
13:40 87.7 °F 69.6 °F 30.14 in Calm   2.0 mph 55% 0.00 in WeatherDisplay:10.37 W/m2 CLR
13:50 87.3 °F 69.2 °F 30.13 in Calm   1.0 mph 55% 0.00 in WeatherDisplay:10.37 W/m2 CLR
14:00 88.4 °F 69.6 °F 30.12 in Calm     54% 0.00 in WeatherDisplay:10.37 W/m2 CLR
14:10 88.6 °F 70.4 °F 30.12 in Calm   2.0 mph 55% 0.00 in WeatherDisplay:10.37 W/m2 CLR
14:20 88.7 °F 70.4 °F 30.12 in Calm   1.0 mph 55% 0.00 in WeatherDisplay:10.37 W/m2 CLR
14:30 86.7 °F 69.6 °F 30.11 in Calm   1.0 mph 57% 0.00 in WeatherDisplay:10.37 W/m2 CLR
14:50 87.1 °F 67.3 °F 30.10 in Calm   2.0 mph 52% 0.00 in WeatherDisplay:10.37 W/m2 CLR
15:00 86.6 °F 71.0 °F 30.10 in Calm   2.0 mph 60% 0.00 in WeatherDisplay:10.37 W/m2 CLR
15:10 85.3 °F 71.8 °F 30.10 in Calm   1.0 mph 64% 0.00 in WeatherDisplay:10.37 W/m2 CLR
15:20 84.1 °F 71.0 °F 30.09 in Calm   1.0 mph 65% 0.00 in WeatherDisplay:10.37 W/m2 CLR
15:30 83.7 °F 72.1 °F 30.09 in Calm   1.0 mph 68% 0.00 in WeatherDisplay:10.37 W/m2 CLR
15:40 83.6 °F 72.3 °F 30.09 in Calm     69% 0.00 in WeatherDisplay:10.37 W/m2 CLR
15:50 84.7 °F 72.1 °F 30.08 in Calm   1.0 mph 66% 0.00 in WeatherDisplay:10.37 W/m2 CLR
16:00 83.9 °F 70.9 °F 30.08 in WNW 1.0 mph 5.0 mph 65% 0.00 in WeatherDisplay:10.37 W/m2 CLR
16:10 82.2 °F 69.7 °F 30.08 in Calm   2.0 mph 66% 0.00 in WeatherDisplay:10.37 W/m2 CLR
16:20 81.1 °F 69.9 °F 30.08 in Calm   3.0 mph 69% 0.00 in WeatherDisplay:10.37 W/m2 CLR
16:30 80.1 °F 69.4 °F 30.09 in Calm   1.0 mph 70% 0.00 in WeatherDisplay:10.37 W/m2 CLR
16:40 79.6 °F 71.0 °F 30.08 in Calm     75% 0.00 in WeatherDisplay:10.37 W/m2 CLR
16:50 79.1 °F 72.0 °F 30.08 in Calm     79% 0.00 in WeatherDisplay:10.37 W/m2 CLR
17:00 78.7 °F 72.0 °F 30.08 in Calm     80% 0.00 in WeatherDisplay:10.37 W/m2 CLR
17:10 78.6 °F 72.3 °F 30.08 in Calm   1.0 mph 81% 0.00 in WeatherDisplay:10.37 W/m2 CLR
17:20 78.5 °F 71.4 °F 30.08 in Calm   1.0 mph 79% 0.00 in WeatherDisplay:10.37 W/m2 CLR
17:30 78.3 °F 72.0 °F 30.08 in Calm   1.0 mph 81% 0.00 in WeatherDisplay:10.37 W/m2 CLR
17:40 77.9 °F 71.2 °F 30.08 in Calm     80% 0.00 in WeatherDisplay:10.37 W/m2 CLR
17:50 77.6 °F 70.9 °F 30.08 in Calm     80% 0.00 in WeatherDisplay:10.37 W/m2 CLR
18:00 77.2 °F 70.9 °F 30.08 in Calm     81% 0.00 in WeatherDisplay:10.37 W/m2 CLR
18:10 76.9 °F 71.3 °F 30.07 in Calm     83% 0.00 in WeatherDisplay:10.37 W/m2 CLR
18:20 77.0 °F 71.4 °F 30.08 in Calm     83% 0.00 in WeatherDisplay:10.37 W/m2 CLR
18:30 77.2 °F 71.3 °F 30.08 in Calm     82% 0.00 in WeatherDisplay:10.37 W/m2 CLR
18:40 78.1 °F 71.5 °F 30.08 in Calm   1.0 mph 80% 0.00 in WeatherDisplay:10.37 W/m2 CLR
18:50 79.2 °F 71.4 °F 30.08 in Calm   2.0 mph 77% 0.00 in WeatherDisplay:10.37 W/m2 CLR
19:00 79.5 °F 71.3 °F 30.07 in Calm   1.0 mph 76% 0.00 in WeatherDisplay:10.37 W/m2 CLR
19:10 79.6 °F 70.6 °F 30.08 in Calm   2.0 mph 74% 0.00 in WeatherDisplay:10.37 W/m2 CLR
19:20 79.5 °F 70.5 °F 30.08 in Calm   2.0 mph 74% 0.00 in WeatherDisplay:10.37 W/m2 CLR
19:30 79.4 °F 70.4 °F 30.07 in Calm   1.0 mph 74% 0.00 in WeatherDisplay:10.37 W/m2 CLR
19:40 79.5 °F 70.8 °F 30.07 in Calm     75% 0.00 in WeatherDisplay:10.37 W/m2 CLR
19:50 79.5 °F 70.9 °F 30.08 in Calm   1.0 mph 75% 0.00 in WeatherDisplay:10.37 W/m2 CLR
20:00 79.3 °F 71.1 °F 30.08 in Calm     76% 0.00 in WeatherDisplay:10.37 W/m2 CLR
20:20 78.7 °F 70.9 °F 30.08 in Calm     77% 0.00 in WeatherDisplay:10.37 W/m2 CLR
20:30 78.2 °F 70.4 °F 30.08 in Calm     77% 0.00 in WeatherDisplay:10.37 W/m2 CLR
20:40 77.8 °F 70.4 °F 30.08 in Calm     78% 0.00 in WeatherDisplay:10.37 W/m2 CLR
20:50 77.5 °F 70.1 °F 30.09 in Calm     78% 0.00 in WeatherDisplay:10.37 W/m2 CLR
21:00 77.2 °F 70.5 °F 30.09 in Calm     80% 0.00 in WeatherDisplay:10.37 W/m2 CLR
21:10 76.9 °F 70.3 °F 30.09 in Calm   1.0 mph 80% 0.00 in WeatherDisplay:10.37 W/m2 CLR
21:20 77.0 °F 70.0 °F 30.09 in Calm   1.0 mph 79% 0.00 in WeatherDisplay:10.37 W/m2 CLR
21:30 77.0 °F 69.2 °F 30.10 in Calm   1.0 mph 77% 0.00 in WeatherDisplay:10.37 W/m2 CLR
21:40 76.7 °F 68.6 °F 30.10 in Calm     76% 0.00 in WeatherDisplay:10.37 W/m2 CLR
21:50 76.3 °F 68.2 °F 30.10 in Calm     76% 0.00 in WeatherDisplay:10.37 W/m2 CLR
22:00 75.9 °F 67.8 °F 30.10 in Calm     76% 0.00 in WeatherDisplay:10.37 W/m2 CLR
22:10 75.6 °F 67.9 °F 30.10 in Calm     77% 0.00 in WeatherDisplay:10.37 W/m2 CLR
22:30 74.6 °F 68.0 °F 30.10 in Calm     80% 0.00 in WeatherDisplay:10.37 W/m2 CLR
22:40 74.1 °F 67.9 °F 30.11 in Calm     81% 0.00 in WeatherDisplay:10.37 W/m2 CLR
22:50 73.7 °F 67.9 °F 30.11 in Calm     82% 0.00 in WeatherDisplay:10.37 W/m2 CLR
23:00 73.4 °F 67.9 °F 30.11 in Calm     83% 0.00 in WeatherDisplay:10.37 W/m2 CLR
23:10 73.1 °F 67.6 °F 30.12 in Calm     83% 0.00 in WeatherDisplay:10.37 W/m2 CLR
23:20 72.8 °F 67.7 °F 30.12 in Calm     84% 0.00 in WeatherDisplay:10.37 W/m2 CLR
23:30 72.5 °F 67.7 °F 30.11 in Calm     85% 0.00 in WeatherDisplay:10.37 W/m2 CLR
23:40 72.2 °F 67.4 °F 30.11 in Calm     85% 0.00 in WeatherDisplay:10.37 W/m2 CLR
23:50 72.1 °F 67.3 °F 30.11 in Calm     85% 0.00 in WeatherDisplay:10.37 W/m2 CLR
Piedmont Bend
Compliments of Weather Underground - 4 mb